Time;durP1;ratioP1;P1;durP2;ratioP2;P2;SDS_P1;SDS_P2;PMS_P1;PMS_P2;Temp;Humidity;BMP_temperature;BMP_pressure;BME280_temperature;BME280_humidity;BME280_pressure;Samples;Min_cycle;Max_cycle;Signal;HPM_P1;HPM_P2
2023/01/10 00:02:02;;;;;;;1.67;1.30;;;5.60;90.60;;;;;;5034145;28;20442;-75
2023/01/10 00:04:28;;;;;;;2.10;1.33;;;5.60;90.60;;;;;;5031332;28;20427;-74
2023/01/10 00:06:55;;;;;;;1.50;1.13;;;5.60;90.40;;;;;;5030335;28;20622;-76
2023/01/10 00:09:20;;;;;;;3.53;1.40;;;5.60;90.10;;;;;;5032422;28;20467;-75
2023/01/10 00:14:33;;;;;;;1.90;1.10;;;5.60;89.90;;;;;;5033692;28;20427;-75
2023/01/10 00:17:02;;;;;;;1.40;1.27;;;5.60;89.70;;;;;;5030922;28;20459;-73
2023/01/10 00:19:28;;;;;;;1.23;1.07;;;5.70;89.70;;;;;;5032929;28;20428;-75
2023/01/10 00:21:56;;;;;;;3.50;1.30;;;5.70;89.60;;;;;;5030277;28;20435;-73
2023/01/10 00:24:22;;;;;;;2.20;1.33;;;5.70;89.50;;;;;;5035128;28;20195;-75
2023/01/10 00:26:50;;;;;;;2.40;1.10;;;5.70;89.50;;;;;;5040485;28;20464;-75
2023/01/10 00:29:24;;;;;;;1.80;1.30;;;5.70;89.50;;;;;;5044807;28;20455;-72
2023/01/10 00:31:50;;;;;;;4.20;1.50;;;5.70;89.20;;;;;;5042059;28;20511;-74
2023/01/10 00:34:16;;;;;;;2.30;1.50;;;5.70;89.30;;;;;;5040646;28;20420;-73
2023/01/10 00:36:41;;;;;;;3.70;1.33;;;5.70;89.70;;;;;;5037379;28;20201;-74
2023/01/10 00:39:09;;;;;;;1.70;1.07;;;5.70;89.70;;;;;;5041782;28;20182;-73
2023/01/10 00:44:19;;;;;;;3.17;1.37;;;5.60;90.20;;;;;;5040127;28;20471;-73
2023/01/10 00:46:45;;;;;;;2.00;1.37;;;5.60;90.50;;;;;;5028303;28;20459;-74
2023/01/10 00:49:13;;;;;;;2.20;1.27;;;5.50;90.70;;;;;;5028127;28;20213;-75
2023/01/10 00:51:38;;;;;;;1.30;1.00;;;5.60;90.90;;;;;;5023083;28;20940;-74
2023/01/10 00:54:04;;;;;;;1.93;1.40;;;5.60;90.90;;;;;;5025485;28;20420;-73
2023/01/10 00:56:29;;;;;;;2.37;1.30;;;5.60;90.90;;;;;;5023038;28;20251;-72
2023/01/10 00:58:55;;;;;;;1.83;1.20;;;5.60;90.90;;;;;;5021384;28;20181;-74
2023/01/10 01:01:21;;;;;;;1.67;1.23;;;5.60;91.00;;;;;;5028403;28;20655;-73
2023/01/10 01:03:46;;;;;;;3.93;1.83;;;5.60;91.00;;;;;;5024812;28;20193;-73
2023/01/10 01:06:12;;;;;;;1.43;1.10;;;5.60;91.00;;;;;;5018416;28;20248;-74
2023/01/10 01:08:37;;;;;;;2.50;1.90;;;5.60;90.90;;;;;;5023356;28;20719;-72
2023/01/10 01:11:03;;;;;;;4.23;1.47;;;5.60;91.00;;;;;;5021773;28;20169;-72
2023/01/10 01:13:28;;;;;;;2.63;1.60;;;5.60;91.10;;;;;;5026418;28;20185;-74
2023/01/10 01:15:59;;;;;;;2.67;1.63;;;5.60;91.20;;;;;;5031171;28;20304;-73
2023/01/10 01:18:26;;;;;;;2.97;1.70;;;5.60;91.30;;;;;;5028615;28;20212;-73
2023/01/10 01:20:55;;;;;;;3.53;1.90;;;5.50;91.50;;;;;;5027940;28;20487;-73
2023/01/10 01:23:21;;;;;;;1.83;1.50;;;5.50;91.70;;;;;;5027498;28;20431;-74
2023/01/10 01:25:53;;;;;;;2.40;1.87;;;5.50;91.60;;;;;;5023643;28;20466;-74
2023/01/10 01:28:20;;;;;;;2.60;1.50;;;5.50;91.50;;;;;;5027513;28;20435;-73
2023/01/10 01:30:46;;;;;;;3.20;1.70;;;5.50;91.50;;;;;;5028004;28;20472;-73
2023/01/10 01:33:12;;;;;;;1.70;1.40;;;5.70;91.50;;;;;;5027633;28;20428;-72
2023/01/10 01:35:42;;;;;;;2.40;1.63;;;5.80;91.10;;;;;;5027059;28;20444;-74
2023/01/10 01:38:08;;;;;;;2.50;1.60;;;5.80;90.80;;;;;;5029405;28;20462;-74
2023/01/10 01:40:33;;;;;;;3.93;1.40;;;5.80;90.20;;;;;;5032729;28;20563;-76
2023/01/10 01:42:59;;;;;;;3.77;1.50;;;5.80;90.00;;;;;;5027838;28;20532;-73
2023/01/10 01:45:33;;;;;;;2.60;2.07;;;5.80;89.60;;;;;;5037507;28;20195;-74
2023/01/10 01:48:19;;;;;;;1.70;1.20;;;5.90;89.60;;;;;;5036979;28;20188;-71
2023/01/10 01:51:06;;;;;;;2.23;1.10;;;5.80;89.30;;;;;;5036306;28;20475;-72
2023/01/10 01:53:56;;;;;;;1.77;1.17;;;5.90;89.00;;;;;;5041184;28;20416;-71
2023/01/10 01:56:34;;;;;;;1.30;0.93;;;5.90;88.70;;;;;;5035961;28;20994;-76
2023/01/10 01:59:15;;;;;;;2.10;1.20;;;6.00;88.60;;;;;;5028260;28;20436;-73
2023/01/10 02:01:42;;;;;;;1.17;0.93;;;6.00;88.30;;;;;;5028683;28;20515;-72
2023/01/10 02:04:12;;;;;;;1.50;1.37;;;6.00;88.60;;;;;;5032213;28;20459;-74
2023/01/10 02:06:38;;;;;;;2.93;1.07;;;6.00;88.70;;;;;;5023575;28;20477;-72
2023/01/10 02:09:19;;;;;;;1.47;1.00;;;6.00;88.90;;;;;;5026594;28;20507;-73
2023/01/10 02:11:45;;;;;;;2.03;1.10;;;5.90;89.00;;;;;;5022304;28;20506;-74
2023/01/10 02:14:12;;;;;;;1.30;1.20;;;5.90;88.90;;;;;;5031330;28;20454;-73
2023/01/10 02:16:38;;;;;;;2.03;1.33;;;5.90;88.90;;;;;;5034962;28;20558;-74
2023/01/10 02:19:13;;;;;;;2.00;1.10;;;5.90;89.00;;;;;;5040149;28;20454;-73
2023/01/10 02:22:11;;;;;;;2.10;1.60;;;5.90;88.90;;;;;;5049676;28;20192;-74
2023/01/10 02:24:57;;;;;;;1.83;1.30;;;5.90;88.90;;;;;;5033577;28;20428;-74
2023/01/10 02:27:36;;;;;;;3.17;1.40;;;5.80;89.30;;;;;;5034585;28;20463;-74
2023/01/10 02:30:23;;;;;;;1.37;1.30;;;5.70;90.00;;;;;;5033782;28;20506;-72
2023/01/10 02:32:56;;;;;;;4.90;1.43;;;5.60;90.50;;;;;;5035062;28;20451;-75
2023/01/10 02:36:14;;;;;;;3.20;1.60;;;5.50;90.70;;;;;;5032495;28;20412;-73
2023/01/10 02:38:59;;;;;;;3.50;1.80;;;5.50;91.20;;;;;;5023133;28;20523;-73
2023/01/10 02:41:41;;;;;;;9.30;2.00;;;5.40;91.60;;;;;;5033859;28;20420;-72
2023/01/10 02:44:18;;;;;;;3.10;1.80;;;5.30;91.90;;;;;;5028587;28;20434;-72
2023/01/10 02:46:47;;;;;;;4.17;2.00;;;5.30;92.20;;;;;;5030618;28;20978;-72
2023/01/10 02:49:13;;;;;;;2.37;1.63;;;5.30;92.30;;;;;;5035699;28;20464;-72
2023/01/10 02:51:38;;;;;;;2.50;1.77;;;5.30;92.50;;;;;;5034237;28;20423;-74
2023/01/10 02:54:09;;;;;;;3.97;1.80;;;5.20;92.40;;;;;;5025058;28;20178;-72
2023/01/10 02:56:49;;;;;;;4.50;1.70;;;5.20;92.30;;;;;;5024452;28;20228;-74
2023/01/10 02:59:42;;;;;;;7.63;1.87;;;5.20;92.20;;;;;;5025324;28;20927;-74
2023/01/10 03:02:33;;;;;;;2.67;1.40;;;5.10;91.90;;;;;;5032265;28;20473;-73
2023/01/10 03:05:12;;;;;;;1.97;1.43;;;5.20;91.70;;;;;;5034658;28;20695;-73
2023/01/10 03:07:51;;;;;;;3.73;1.67;;;5.10;91.40;;;;;;5027512;28;20455;-72
2023/01/10 03:10:22;;;;;;;2.33;1.50;;;5.10;91.50;;;;;;5028959;28;20601;-74
2023/01/10 03:12:57;;;;;;;3.33;1.53;;;5.10;91.40;;;;;;5025617;28;20462;-72
2023/01/10 03:15:26;;;;;;;2.80;1.70;;;5.10;91.00;;;;;;5024310;28;20511;-75
2023/01/10 03:17:57;;;;;;;2.83;1.87;;;5.10;91.00;;;;;;5028766;28;20424;-74
2023/01/10 03:20:23;;;;;;;4.40;1.53;;;5.20;91.20;;;;;;5022210;28;20875;-72
2023/01/10 03:22:51;;;;;;;4.13;2.13;;;5.20;91.10;;;;;;5035023;28;20484;-72
2023/01/10 03:25:20;;;;;;;3.40;2.10;;;5.10;91.00;;;;;;5031636;28;20424;-73
2023/01/10 03:28:22;;;;;;;2.80;1.90;;;5.20;91.00;;;;;;5028106;28;20436;-73
2023/01/10 03:30:56;;;;;;;6.60;2.30;;;5.20;90.70;;;;;;5006010;28;20820;-73
2023/01/10 03:33:26;;;;;;;5.87;2.57;;;5.30;90.60;;;;;;4994938;28;20954;-75
2023/01/10 03:36:06;;;;;;;6.60;2.90;;;5.30;90.60;;;;;;5003874;28;20453;-74
2023/01/10 03:38:42;;;;;;;4.30;2.60;;;5.20;90.60;;;;;;4993317;28;20425;-74
2023/01/10 03:41:32;;;;;;;5.53;2.60;;;5.20;90.30;;;;;;5014270;28;20431;-74
2023/01/10 03:44:45;;;;;;;3.23;2.37;;;5.30;90.50;;;;;;5006001;28;20428;-74
2023/01/10 03:47:26;;;;;;;7.30;2.73;;;5.30;90.60;;;;;;4911472;29;20520;-75
2023/01/10 03:50:14;;;;;;;6.93;2.57;;;5.40;90.40;;;;;;4912512;29;21047;-74
2023/01/10 03:52:41;;;;;;;3.20;2.20;;;5.40;90.20;;;;;;4910130;29;20433;-73
2023/01/10 03:55:10;;;;;;;4.27;2.67;;;5.40;89.90;;;;;;4913364;29;20470;-75
2023/01/10 03:57:36;;;;;;;4.10;2.67;;;5.30;89.70;;;;;;4912239;29;20563;-73
2023/01/10 04:00:03;;;;;;;6.00;2.30;;;5.40;90.00;;;;;;4913843;29;20591;-74
2023/01/10 04:02:30;;;;;;;5.70;2.80;;;5.40;89.90;;;;;;4913864;29;20260;-73
2023/01/10 04:04:57;;;;;;;7.13;2.60;;;5.40;89.70;;;;;;4912598;29;20426;-75
2023/01/10 04:07:23;;;;;;;7.43;2.83;;;5.40;89.90;;;;;;4949481;28;20479;-75
2023/01/10 04:09:49;;;;;;;3.20;2.50;;;5.40;90.00;;;;;;4939406;28;20558;-74
2023/01/10 04:12:14;;;;;;;3.67;2.40;;;5.40;90.10;;;;;;4936531;29;20452;-73
2023/01/10 04:14:40;;;;;;;4.60;2.27;;;5.40;90.10;;;;;;4953651;29;20254;-74
2023/01/10 04:17:06;;;;;;;2.80;2.17;;;5.30;90.20;;;;;;4950738;29;20718;-74
2023/01/10 04:19:32;;;;;;;3.43;2.20;;;5.30;90.20;;;;;;4952567;28;20259;-75
2023/01/10 04:21:58;;;;;;;4.30;2.30;;;5.20;90.10;;;;;;4975548;28;20979;-75
2023/01/10 04:24:24;;;;;;;3.17;2.27;;;5.10;90.30;;;;;;5036318;28;20466;-76
2023/01/10 04:26:50;;;;;;;3.90;2.63;;;5.10;90.40;;;;;;5028729;28;20244;-75
2023/01/10 04:29:15;;;;;;;2.63;2.20;;;5.20;90.50;;;;;;5034277;28;20457;-74
2023/01/10 04:31:41;;;;;;;4.03;2.70;;;5.20;90.40;;;;;;5031981;28;20177;-75
2023/01/10 04:34:07;;;;;;;3.90;2.20;;;5.20;90.30;;;;;;5031130;28;20178;-74
2023/01/10 04:36:33;;;;;;;3.90;3.20;;;5.20;90.30;;;;;;5030133;28;20205;-73
2023/01/10 04:38:59;;;;;;;8.60;4.47;;;5.10;90.10;;;;;;5028953;28;20431;-75
2023/01/10 04:41:24;;;;;;;5.63;2.60;;;5.10;90.30;;;;;;5030499;28;20181;-76
2023/01/10 04:43:50;;;;;;;4.37;2.60;;;5.10;90.10;;;;;;5025988;28;20188;-76
2023/01/10 04:46:16;;;;;;;5.47;2.50;;;5.10;90.10;;;;;;5028632;28;20575;-74
2023/01/10 04:48:41;;;;;;;7.60;2.17;;;5.10;90.10;;;;;;5030892;28;20200;-75
2023/01/10 04:51:07;;;;;;;8.40;2.40;;;5.00;90.00;;;;;;5032578;28;20205;-74
2023/01/10 04:53:33;;;;;;;3.30;2.47;;;5.00;90.10;;;;;;5032086;28;20181;-74
2023/01/10 04:56:06;;;;;;;9.50;3.10;;;5.00;90.10;;;;;;5031219;28;20455;-75
2023/01/10 04:58:34;;;;;;;4.83;2.40;;;5.00;90.00;;;;;;5017778;28;20675;-77
2023/01/10 05:01:05;;;;;;;8.60;3.17;;;5.00;89.90;;;;;;5028597;28;20875;-77
2023/01/10 05:03:31;;;;;;;3.80;2.67;;;5.00;89.60;;;;;;5027952;28;20962;-76
2023/01/10 05:05:57;;;;;;;4.00;2.40;;;5.00;89.60;;;;;;5023088;28;20460;-77
2023/01/10 05:08:23;;;;;;;6.03;2.50;;;5.00;89.30;;;;;;5023774;28;20193;-77
2023/01/10 05:10:48;;;;;;;10.03;2.77;;;5.00;89.30;;;;;;5029143;28;20483;-76
2023/01/10 05:13:14;;;;;;;6.17;2.90;;;5.00;89.00;;;;;;5026770;28;20185;-75
2023/01/10 05:15:40;;;;;;;6.50;2.60;;;4.90;88.70;;;;;;5023421;28;20215;-74
2023/01/10 05:18:05;;;;;;;6.30;2.87;;;5.00;88.70;;;;;;5024329;28;20259;-75
2023/01/10 05:20:31;;;;;;;11.03;3.30;;;5.10;88.60;;;;;;5022794;28;20227;-80
2023/01/10 05:22:56;;;;;;;9.50;2.37;;;5.10;88.10;;;;;;5029687;28;20184;-77
2023/01/10 05:25:22;;;;;;;9.47;3.57;;;5.10;87.70;;;;;;5033627;28;20210;-74
2023/01/10 05:27:47;;;;;;;6.80;2.57;;;5.10;87.60;;;;;;5027001;28;20192;-76
2023/01/10 05:30:13;;;;;;;7.33;3.20;;;5.10;86.90;;;;;;5038319;28;20220;-75
2023/01/10 05:32:39;;;;;;;11.13;2.90;;;5.10;86.80;;;;;;5022494;28;20189;-76
2023/01/10 05:35:05;;;;;;;6.40;2.90;;;5.10;87.00;;;;;;5028418;28;20463;-75
2023/01/10 05:37:31;;;;;;;14.77;3.67;;;5.10;86.90;;;;;;5021644;28;20206;-77
2023/01/10 05:39:56;;;;;;;7.43;3.07;;;5.10;86.60;;;;;;5037752;28;20444;-76
2023/01/10 05:42:22;;;;;;;9.30;2.93;;;5.10;86.80;;;;;;5037723;28;20292;-76
2023/01/10 05:44:47;;;;;;;9.83;3.83;;;5.20;86.90;;;;;;5040241;28;20255;-75
2023/01/10 05:47:13;;;;;;;5.97;3.00;;;5.20;86.60;;;;;;5034075;28;20997;-75
2023/01/10 05:49:38;;;;;;;9.30;3.50;;;5.20;86.20;;;;;;5035633;28;20586;-75
2023/01/10 05:52:04;;;;;;;14.73;3.27;;;5.30;85.90;;;;;;5029732;28;20195;-76
2023/01/10 05:54:29;;;;;;;6.67;3.00;;;5.30;85.90;;;;;;5036799;28;20196;-75
2023/01/10 05:56:55;;;;;;;11.63;2.80;;;5.30;85.70;;;;;;5033084;28;20220;-76
2023/01/10 05:59:21;;;;;;;14.63;2.97;;;5.40;85.60;;;;;;5032585;28;20185;-74
2023/01/10 06:01:47;;;;;;;7.07;2.50;;;5.30;85.00;;;;;;5030703;28;20439;-76
2023/01/10 06:04:12;;;;;;;4.00;2.33;;;5.40;84.90;;;;;;5027011;28;20257;-75
2023/01/10 06:06:38;;;;;;;10.50;5.07;;;5.40;84.40;;;;;;5027436;28;20588;-75
2023/01/10 06:09:04;;;;;;;7.00;2.63;;;5.40;84.70;;;;;;5030989;28;20196;-74
2023/01/10 06:11:29;;;;;;;8.03;2.40;;;5.40;84.30;;;;;;5029388;28;20192;-77
2023/01/10 06:13:56;;;;;;;9.13;2.87;;;5.40;84.90;;;;;;5032289;28;20223;-75
2023/01/10 06:16:22;;;;;;;9.47;2.43;;;5.40;85.20;;;;;;5029763;28;20288;-75
2023/01/10 06:18:47;;;;;;;11.47;2.50;;;5.40;85.00;;;;;;5031156;28;20499;-76
2023/01/10 06:21:13;;;;;;;10.43;2.60;;;5.50;84.00;;;;;;5033141;28;20503;-75
2023/01/10 06:23:39;;;;;;;5.97;2.90;;;5.50;83.80;;;;;;5039501;28;20287;-76
2023/01/10 06:26:05;;;;;;;7.03;2.47;;;5.50;83.80;;;;;;5042737;28;20236;-76
2023/01/10 06:28:30;;;;;;;6.27;2.50;;;5.50;83.80;;;;;;5037776;28;20185;-74
2023/01/10 06:30:56;;;;;;;11.27;2.80;;;5.40;82.70;;;;;;5042790;28;20470;-76
2023/01/10 06:33:21;;;;;;;5.30;2.13;;;5.40;82.70;;;;;;5043543;28;20187;-73
2023/01/10 06:35:47;;;;;;;7.27;2.17;;;5.50;82.10;;;;;;5043779;28;20291;-73
2023/01/10 06:38:14;;;;;;;7.43;2.77;;;5.50;81.90;;;;;;5036417;28;20190;-75
2023/01/10 06:40:40;;;;;;;5.40;2.00;;;5.50;82.50;;;;;;5033259;28;20427;-72
2023/01/10 06:43:05;;;;;;;14.27;3.73;;;5.50;82.70;;;;;;5029584;28;20432;-74
2023/01/10 06:45:31;;;;;;;10.73;2.53;;;5.50;82.20;;;;;;5026773;28;20192;-74
2023/01/10 06:47:57;;;;;;;6.83;2.73;;;5.50;82.10;;;;;;5028981;28;20177;-73
2023/01/10 06:50:23;;;;;;;7.73;2.87;;;5.40;82.10;;;;;;5028855;28;20315;-75
2023/01/10 06:52:59;;;;;;;6.07;2.37;;;5.40;82.40;;;;;;5029312;28;20331;-74
2023/01/10 06:55:25;;;;;;;7.03;2.30;;;5.40;82.40;;;;;;5032717;28;20488;-74
2023/01/10 06:58:00;;;;;;;14.47;3.33;;;5.40;82.80;;;;;;5048309;28;20459;-73
2023/01/10 07:00:26;;;;;;;7.17;2.40;;;5.50;83.10;;;;;;5029164;28;20423;-76
2023/01/10 07:02:56;;;;;;;10.67;2.83;;;5.50;83.00;;;;;;5033656;28;20509;-74
2023/01/10 07:05:22;;;;;;;9.63;2.67;;;5.50;82.80;;;;;;5033514;28;20428;-74
2023/01/10 07:07:47;;;;;;;6.70;2.23;;;5.50;82.80;;;;;;5033585;28;20450;-74
2023/01/10 07:10:13;;;;;;;7.50;2.60;;;5.40;82.40;;;;;;5036639;28;20213;-75
2023/01/10 07:12:38;;;;;;;9.63;2.70;;;5.40;82.50;;;;;;5034734;28;20197;-75
2023/01/10 07:15:05;;;;;;;17.97;3.17;;;5.40;83.00;;;;;;5036283;28;20181;-75
2023/01/10 07:17:30;;;;;;;15.40;2.50;;;5.40;83.00;;;;;;5041882;28;20278;-73
2023/01/10 07:19:56;;;;;;;6.80;2.50;;;5.40;83.00;;;;;;5026790;28;20511;-75
2023/01/10 07:22:22;;;;;;;5.03;1.93;;;5.50;83.10;;;;;;5031966;28;20190;-75
2023/01/10 07:24:47;;;;;;;8.50;2.40;;;5.50;82.70;;;;;;5032544;28;20570;-74
2023/01/10 07:27:13;;;;;;;10.50;2.30;;;5.50;82.70;;;;;;5030580;28;20216;-75
2023/01/10 07:29:39;;;;;;;5.63;2.23;;;5.50;82.40;;;;;;5034790;28;20205;-74
2023/01/10 07:32:05;;;;;;;7.90;2.70;;;5.50;82.40;;;;;;5035267;28;20777;-74
2023/01/10 07:34:30;;;;;;;10.93;2.40;;;5.50;81.90;;;;;;5036263;28;20272;-74
2023/01/10 07:36:56;;;;;;;10.23;2.60;;;5.50;81.50;;;;;;5033034;28;20513;-75
2023/01/10 07:39:21;;;;;;;11.63;2.43;;;5.50;81.50;;;;;;5031775;28;20644;-73
2023/01/10 07:41:48;;;;;;;8.47;2.80;;;5.50;81.40;;;;;;5028896;28;20201;-73
2023/01/10 07:44:14;;;;;;;6.23;2.40;;;5.50;81.40;;;;;;5031787;28;20192;-72
2023/01/10 07:46:39;;;;;;;4.97;1.63;;;5.60;81.50;;;;;;5026487;28;20463;-73
2023/01/10 07:49:05;;;;;;;7.73;2.40;;;5.60;80.90;;;;;;5031295;28;20177;-73
2023/01/10 07:51:31;;;;;;;11.40;2.70;;;5.60;80.60;;;;;;5026877;28;20213;-75
2023/01/10 07:53:56;;;;;;;7.33;2.20;;;5.60;80.60;;;;;;5031905;28;20186;-74
2023/01/10 07:56:22;;;;;;;15.73;2.40;;;5.60;80.80;;;;;;5027242;28;20214;-77
2023/01/10 07:58:48;;;;;;;10.67;2.57;;;5.70;80.60;;;;;;5029479;28;20177;-74
2023/01/10 08:01:14;;;;;;;13.73;2.53;;;5.80;80.80;;;;;;5032477;28;20455;-75
2023/01/10 08:03:39;;;;;;;7.47;2.20;;;5.80;80.30;;;;;;5031195;28;20191;-75
2023/01/10 08:06:09;;;;;;;11.60;2.70;;;5.80;80.50;;;;;;5027191;28;20220;-75
2023/01/10 08:08:35;;;;;;;4.67;2.40;;;5.80;80.50;;;;;;5029013;28;20211;-75
2023/01/10 08:11:01;;;;;;;6.53;2.50;;;5.80;80.50;;;;;;5029404;28;20471;-75
2023/01/10 08:13:27;;;;;;;6.97;2.60;;;5.80;80.30;;;;;;5030257;28;20451;-76
2023/01/10 08:15:53;;;;;;;8.43;3.97;;;5.90;80.50;;;;;;5018572;28;20464;-75
2023/01/10 08:18:20;;;;;;;5.00;2.00;;;5.90;80.20;;;;;;5036145;28;20462;-76
2023/01/10 08:20:51;;;;;;;5.47;3.23;;;5.90;80.20;;;;;;5035685;28;20220;-74
2023/01/10 08:23:18;;;;;;;8.73;2.43;;;5.90;79.90;;;;;;5031939;28;20420;-76
2023/01/10 08:25:45;;;;;;;9.77;2.67;;;5.90;80.00;;;;;;5028754;28;20485;-75
2023/01/10 08:28:11;;;;;;;12.50;3.17;;;6.00;79.70;;;;;;5024285;28;20436;-75
2023/01/10 08:30:37;;;;;;;7.37;2.50;;;6.00;79.70;;;;;;5030136;28;20471;-76
2023/01/10 08:33:05;;;;;;;7.13;2.50;;;6.00;79.60;;;;;;5030651;28;20432;-75
2023/01/10 08:35:34;;;;;;;9.07;2.87;;;6.00;79.50;;;;;;5029442;28;20549;-74
2023/01/10 08:38:00;;;;;;;3.53;2.20;;;6.00;79.70;;;;;;5030599;28;20899;-74
2023/01/10 08:40:26;;;;;;;7.07;3.30;;;6.10;79.50;;;;;;5030493;28;20423;-76
2023/01/10 08:43:00;;;;;;;3.53;2.40;;;6.10;79.50;;;;;;5032085;28;20423;-76
2023/01/10 08:45:26;;;;;;;8.40;2.67;;;6.20;79.30;;;;;;5031350;28;20882;-76
2023/01/10 08:47:52;;;;;;;5.80;2.60;;;6.40;79.50;;;;;;5038535;28;20479;-76
2023/01/10 08:50:18;;;;;;;5.10;2.70;;;6.40;78.90;;;;;;5048033;28;20487;-75
2023/01/10 08:52:43;;;;;;;7.80;2.30;;;6.40;78.30;;;;;;5038532;28;20491;-76
2023/01/10 08:55:09;;;;;;;8.20;2.37;;;6.20;78.30;;;;;;5044033;28;20639;-75
2023/01/10 08:57:35;;;;;;;5.20;2.17;;;6.30;78.70;;;;;;5041591;28;20225;-76
2023/01/10 09:00:01;;;;;;;6.23;2.70;;;6.20;78.60;;;;;;5035935;28;20424;-76
2023/01/10 09:02:27;;;;;;;10.17;3.20;;;6.20;78.70;;;;;;5035549;28;20722;-74
2023/01/10 09:04:52;;;;;;;5.67;2.60;;;6.20;78.90;;;;;;5035904;28;20773;-76
2023/01/10 09:07:18;;;;;;;7.23;2.90;;;6.20;79.30;;;;;;5026481;28;20217;-76
2023/01/10 09:09:43;;;;;;;14.77;3.83;;;6.20;79.30;;;;;;5025951;28;20201;-73
2023/01/10 09:14:53;;;;;;;12.57;2.80;;;6.30;79.60;;;;;;5025424;28;20212;-74
2023/01/10 09:17:18;;;;;;;10.40;3.17;;;6.20;79.70;;;;;;5029125;28;20538;-75
2023/01/10 09:19:44;;;;;;;6.87;2.47;;;6.20;79.70;;;;;;5024755;28;20243;-75
2023/01/10 09:22:10;;;;;;;10.77;2.70;;;6.20;79.60;;;;;;5031464;28;20181;-77
2023/01/10 09:24:37;;;;;;;6.13;2.80;;;6.20;79.30;;;;;;5025515;28;20188;-77
2023/01/10 09:27:03;;;;;;;7.77;2.57;;;6.10;79.60;;;;;;5024008;28;20201;-74
2023/01/10 09:29:28;;;;;;;7.23;2.50;;;6.10;80.00;;;;;;5031802;28;20470;-73
2023/01/10 09:31:54;;;;;;;8.33;3.83;;;6.10;80.50;;;;;;5029200;28;20222;-77
2023/01/10 09:34:20;;;;;;;5.53;2.93;;;6.00;81.20;;;;;;5028978;28;20274;-74
2023/01/10 09:36:46;;;;;;;12.77;3.00;;;6.00;81.80;;;;;;5030494;28;20569;-77
2023/01/10 09:39:12;;;;;;;16.30;3.80;;;6.00;82.10;;;;;;5031342;28;20503;-77
2023/01/10 09:42:02;;;;;;;5.10;2.70;;;6.00;82.40;;;;;;5024873;28;20459;-73
2023/01/10 09:44:55;;;;;;;11.20;3.40;;;5.90;83.00;;;;;;5030673;28;20176;-74
2023/01/10 09:47:46;;;;;;;5.67;2.90;;;5.90;83.30;;;;;;5030667;28;20432;-76
2023/01/10 09:50:18;;;;;;;7.57;3.13;;;5.90;83.60;;;;;;5030815;28;20467;-76
2023/01/10 09:52:54;;;;;;;6.17;2.70;;;5.90;84.00;;;;;;5037967;28;20404;-76
2023/01/10 09:55:23;;;;;;;5.67;2.67;;;6.00;83.30;;;;;;5049374;28;20400;-76
2023/01/10 09:57:52;;;;;;;7.80;3.63;;;6.00;83.30;;;;;;5048928;28;20428;-74
2023/01/10 10:00:22;;;;;;;7.07;3.60;;;6.00;83.40;;;;;;5043315;28;20415;-75
2023/01/10 10:02:51;;;;;;;9.83;3.93;;;5.90;84.40;;;;;;5041384;28;20451;-74
2023/01/10 10:05:25;;;;;;;7.30;3.13;;;5.80;85.00;;;;;;5039743;28;20434;-74
2023/01/10 10:08:01;;;;;;;6.00;3.10;;;5.80;86.00;;;;;;5036039;28;20444;-74
2023/01/10 10:10:38;;;;;;;9.10;4.03;;;5.80;86.20;;;;;;5038352;28;20534;-75
2023/01/10 10:13:25;;;;;;;6.43;3.10;;;5.80;86.00;;;;;;5025090;28;20502;-74
2023/01/10 10:15:55;;;;;;;9.30;3.80;;;5.90;86.20;;;;;;5023969;28;20468;-75
2023/01/10 10:18:37;;;;;;;6.40;2.90;;;6.00;86.00;;;;;;5026439;28;20418;-75
2023/01/10 10:21:09;;;;;;;5.97;2.90;;;6.10;86.20;;;;;;5026453;28;20424;-74
2023/01/10 10:24:35;;;;;;;7.30;3.97;;;6.20;85.30;;;;;;5025086;28;20420;-74
2023/01/10 10:27:23;;;;;;;6.77;2.80;;;6.20;84.30;;;;;;4995393;28;21002;-74
2023/01/10 10:30:29;;;;;;;8.10;2.80;;;6.20;84.40;;;;;;5022362;28;20455;-74
2023/01/10 10:33:12;;;;;;;7.00;2.70;;;6.30;84.30;;;;;;5020351;28;20872;-76
2023/01/10 10:35:41;;;;;;;12.13;3.37;;;6.40;83.60;;;;;;5026089;28;20797;-75
2023/01/10 10:38:21;;;;;;;4.87;2.53;;;6.30;83.30;;;;;;5025115;28;20416;-75
2023/01/10 10:40:49;;;;;;;8.97;3.00;;;6.40;83.30;;;;;;5031163;28;20420;-74
2023/01/10 10:43:19;;;;;;;4.40;2.83;;;6.50;82.80;;;;;;5029725;28;20424;-75
2023/01/10 10:45:50;;;;;;;8.07;2.50;;;6.50;82.50;;;;;;5028440;28;20533;-74
2023/01/10 10:48:38;;;;;;;6.40;2.40;;;6.40;82.80;;;;;;5031719;28;20423;-75
2023/01/10 10:51:06;;;;;;;12.60;3.27;;;6.50;83.30;;;;;;5028583;28;20459;-74
2023/01/10 10:53:32;;;;;;;5.33;2.30;;;6.50;83.10;;;;;;5031383;28;20411;-76
2023/01/10 10:56:00;;;;;;;5.67;2.60;;;6.50;82.70;;;;;;5032598;28;20936;-76
2023/01/10 10:58:29;;;;;;;5.83;2.77;;;6.50;83.00;;;;;;5031786;28;20455;-76
2023/01/10 11:00:56;;;;;;;8.63;2.23;;;6.70;82.50;;;;;;5035775;28;20430;-75
2023/01/10 11:03:35;;;;;;;3.77;2.10;;;6.70;82.10;;;;;;5032013;28;20416;-76
2023/01/10 11:06:01;;;;;;;4.27;2.20;;;6.70;81.20;;;;;;5031999;28;20460;-75
2023/01/10 11:08:29;;;;;;;5.40;2.10;;;6.70;80.50;;;;;;5032921;28;20428;-74
2023/01/10 11:10:57;;;;;;;3.43;1.97;;;6.60;80.90;;;;;;5034397;28;20495;-75
2023/01/10 11:13:32;;;;;;;5.37;2.50;;;6.60;81.50;;;;;;5039244;28;20417;-74
2023/01/10 11:15:58;;;;;;;4.37;1.97;;;6.60;82.40;;;;;;5035692;28;20482;-76
2023/01/10 11:18:29;;;;;;;4.23;1.90;;;6.70;82.80;;;;;;5038260;28;20440;-77
2023/01/10 11:20:57;;;;;;;10.30;2.50;;;6.70;82.80;;;;;;5032662;28;20436;-78
2023/01/10 11:23:23;;;;;;;4.17;1.87;;;6.70;82.40;;;;;;5031391;28;20432;-75
2023/01/10 11:25:49;;;;;;;4.67;1.87;;;6.70;81.70;;;;;;5022927;28;20508;-78
2023/01/10 11:28:17;;;;;;;6.10;2.10;;;6.70;81.70;;;;;;5029851;28;20451;-75
2023/01/10 11:30:47;;;;;;;5.73;2.30;;;6.70;81.80;;;;;;5031592;28;20562;-76
2023/01/10 11:33:26;;;;;;;6.93;2.10;;;6.80;81.80;;;;;;5031094;28;20420;-75
2023/01/10 11:36:04;;;;;;;6.27;2.97;;;6.90;81.90;;;;;;5031495;28;20525;-75
2023/01/10 11:38:31;;;;;;;8.67;2.27;;;7.00;80.60;;;;;;5040597;28;20412;-77
2023/01/10 11:40:59;;;;;;;6.17;2.23;;;6.80;79.00;;;;;;5031473;28;20487;-76
2023/01/10 11:43:26;;;;;;;8.70;2.57;;;6.80;79.70;;;;;;5032838;28;20514;-75
2023/01/10 11:45:55;;;;;;;6.90;2.93;;;6.90;80.20;;;;;;5027658;28;20475;-74
2023/01/10 11:48:24;;;;;;;12.43;3.43;;;6.90;79.30;;;;;;5029659;28;20846;-78
2023/01/10 11:50:53;;;;;;;8.80;2.57;;;7.00;79.00;;;;;;5028339;28;20456;-76
2023/01/10 11:53:36;;;;;;;4.67;1.93;;;7.00;79.00;;;;;;5029995;28;20427;-75
2023/01/10 11:56:04;;;;;;;4.13;2.20;;;7.00;78.90;;;;;;5022668;28;20456;-75
2023/01/10 11:58:35;;;;;;;8.10;2.73;;;7.10;78.60;;;;;;5036609;28;20448;-76
2023/01/10 12:01:01;;;;;;;7.03;2.30;;;7.30;78.40;;;;;;5036347;28;20424;-76
2023/01/10 12:03:35;;;;;;;4.30;2.10;;;7.30;78.00;;;;;;5029669;28;20500;-76
2023/01/10 12:06:14;;;;;;;8.17;2.50;;;7.40;77.80;;;;;;5027024;28;20449;-77
2023/01/10 12:08:41;;;;;;;11.23;3.00;;;7.40;77.70;;;;;;5030348;28;20438;-76
2023/01/10 12:11:28;;;;;;;5.87;2.13;;;7.30;77.60;;;;;;5031811;28;20853;-75
2023/01/10 12:13:57;;;;;;;5.33;2.00;;;7.30;77.80;;;;;;5025524;28;20416;-75
2023/01/10 12:16:31;;;;;;;3.90;2.00;;;7.30;78.00;;;;;;5025730;28;20467;-76
2023/01/10 12:18:59;;;;;;;11.60;2.23;;;7.30;77.00;;;;;;5029276;28;20412;-76
2023/01/10 12:21:40;;;;;;;9.43;2.80;;;7.40;77.10;;;;;;5030233;28;20828;-75
2023/01/10 12:24:12;;;;;;;7.43;2.10;;;7.30;77.10;;;;;;5030323;28;20474;-76
2023/01/10 12:26:38;;;;;;;4.10;1.97;;;7.30;77.00;;;;;;5025384;28;20454;-74
2023/01/10 12:29:14;;;;;;;6.30;2.00;;;7.30;77.10;;;;;;5031509;28;20416;-74
2023/01/10 12:31:40;;;;;;;4.40;2.57;;;7.30;76.70;;;;;;5029572;28;20749;-73
2023/01/10 12:34:42;;;;;;;6.50;2.60;;;7.30;76.70;;;;;;5031494;28;20468;-77
2023/01/10 12:37:20;;;;;;;5.73;2.33;;;7.20;75.90;;;;;;5003942;28;20551;-76
2023/01/10 12:39:50;;;;;;;9.00;2.90;;;7.30;76.10;;;;;;5014112;28;20425;-77
2023/01/10 12:45:31;;;;;;;3.50;2.20;;;7.50;74.50;;;;;;5015386;28;20412;-75
2023/01/10 12:48:34;;;;;;;5.70;1.80;;;7.60;72.90;;;;;;5014660;28;20424;-76
2023/01/10 12:51:06;;;;;;;10.57;2.03;;;7.80;71.70;;;;;;5003309;28;20504;-76
2023/01/10 12:53:37;;;;;;;4.57;1.73;;;7.60;71.70;;;;;;5006024;28;20429;-76
2023/01/10 12:56:08;;;;;;;9.53;1.90;;;7.50;71.60;;;;;;5002543;28;20583;-77
2023/01/10 12:58:44;;;;;;;6.27;1.90;;;7.40;71.70;;;;;;4997675;28;20475;-76
2023/01/10 13:01:15;;;;;;;7.10;2.40;;;7.40;72.30;;;;;;5011586;28;20443;-76
2023/01/10 13:03:43;;;;;;;5.17;2.13;;;7.40;71.40;;;;;;5014242;28;20435;-77
2023/01/10 13:06:21;;;;;;;4.90;1.60;;;7.40;71.30;;;;;;5014465;28;20460;-76
2023/01/10 13:08:47;;;;;;;7.43;1.93;;;7.40;71.30;;;;;;5008935;28;20520;-77
2023/01/10 13:11:17;;;;;;;4.27;1.83;;;7.40;71.40;;;;;;5008775;28;20800;-78
2023/01/10 13:13:49;;;;;;;8.40;2.40;;;7.40;71.60;;;;;;5023354;28;20416;-76
2023/01/10 13:16:21;;;;;;;5.00;2.00;;;7.50;71.70;;;;;;5028124;28;20452;-74
2023/01/10 13:19:09;;;;;;;5.90;2.20;;;7.50;71.80;;;;;;5031604;28;20424;-77
2023/01/10 13:21:37;;;;;;;2.80;1.60;;;7.50;71.30;;;;;;5032321;28;20439;-73
2023/01/10 13:24:18;;;;;;;4.70;1.80;;;7.50;71.00;;;;;;5031765;28;21003;-75